Latest Weather Observations for Coolangatta

IDN60801

Issued at 9:52 am EST Monday 23 April 2018 (issued every 10 minutes, with the page automatically refreshed every 10 minutes)

About weather observations | Map of weather stations | Latest weather observations for NSW | Other Formats
Station Details ID: 040717 Name: COOLANGATTA Lat: -28.17 Lon: 153.51 Height: 4.0 m
Data from the previous 72 hours. | See also: Recent months at Coolangatta
Date/Time
EST
Temp
°C
App
Temp
°C
Dew
Point
°C
Rel
Hum
%
Delta-T
°C
Wind Press
QNH
hPa
Press
MSL
hPa
Rain since
9am
mm
Dir  Spd
km/h
Gust
km/h
Spd
kts
Gust
kts
23/09:30am 22.6 20.5 16.2 67 3.9 SSW 22 39 12 21 1016.7 1016.7 0.0
23/09:00am 22.0 19.1 16.1 69 3.6 SSW 26 39 14 21 1016.5 1016.5 7.8
23/08:30am 21.4 19.5 15.7 70 3.4 SSW 20 35 11 19 1016.7 1016.7 7.8
23/08:00am 20.8 18.8 15.6 72 3.1 SSW 20 28 11 15 1016.8 1016.8 7.8
23/07:30am 20.0 18.0 15.6 76 2.6 SSW 20 32 11 17 1016.7 1016.7 7.8
23/07:00am 19.4 17.6 15.5 78 2.3 SSW 19 28 10 15 1016.4 1016.4 7.8
23/06:30am 18.9 17.4 15.2 79 2.2 SSW 17 32 9 17 1016.2 1016.1 7.8
23/06:00am 18.8 17.3 15.3 80 2.1 SSW 17 33 9 18 1015.7 1015.6 7.8
23/05:30am 18.6 16.7 15.1 80 2.0 SSW 19 30 10 16 1015.4 1015.3 7.8
23/05:00am 18.6 16.7 15.1 80 2.0 SSW 19 26 10 14 1015.4 1015.3 7.8
23/04:30am 18.6 16.7 15.1 80 2.0 SSW 19 28 10 15 1015.5 1015.4 7.8
23/04:00am 18.5 17.0 15.2 81 1.9 SSW 17 26 9 14 1015.6 1015.5 7.8
23/03:30am 18.6 17.0 15.1 80 2.0 SSW 17 28 9 15 1015.6 1015.5 7.8
23/03:00am 18.6 16.7 15.1 80 2.0 SSW 19 28 10 15 1015.6 1015.5 7.8
23/02:30am 18.7 17.2 15.2 80 2.0 SSW 17 26 9 14 1015.8 1015.7 7.8
23/02:00am 18.7 17.2 15.2 80 2.0 SSW 17 24 9 13 1016.1 1016.0 7.8
23/01:30am 18.7 17.6 15.2 80 2.0 SSW 15 20 8 11 1016.3 1016.3 7.8
23/01:00am 18.8 17.4 15.5 81 1.9 SSW 17 22 9 12 1016.3 1016.3 7.8
23/12:30am 18.6 18.1 16.0 85 1.5 SSW 13 20 7 11 1016.7 1016.7 7.8
23/12:00am 18.5 18.1 16.1 86 1.4 SSW 13 19 7 10 1017.0 1017.0 7.8
 
Date/Time
EST
Temp
°C
App
Temp
°C
Dew
Point
°C
Rel
Hum
%
Delta-T
°C
Wind Press
QNH
hPa
Press
MSL
hPa
Rain since
9am
mm
Dir  Spd
km/h
Gust
km/h
Spd
kts
Gust
kts
22/11:30pm 18.6 18.7 16.4 87 1.3 SSW 11 17 6 9 1017.3 1017.3 7.8
22/11:00pm 18.3 18.6 17.0 92 0.8 SSW 11 15 6 8 1017.6 1017.6 7.8
22/10:30pm 18.4 18.9 17.4 94 0.6 S 11 17 6 9 1018.0 1018.0 7.8
22/10:00pm 18.4 18.8 17.2 93 0.7 S 11 20 6 11 1018.4 1018.4 7.8
22/09:30pm 19.9 18.8 16.3 80 2.2 SSE 17 30 9 16 1018.7 1018.7 6.6
22/09:00pm 20.0 18.6 15.6 76 2.6 SSW 17 22 9 12 1017.9 1017.9 6.6
22/08:30pm 19.8 19.1 15.4 76 2.6 SSW 13 20 7 11 1017.9 1017.9 6.6
22/08:00pm 20.0 18.6 15.6 76 2.6 SW 17 28 9 15 1017.8 1017.8 6.6
22/07:30pm 20.1 19.5 15.7 76 2.6 SSW 13 20 7 11 1017.7 1017.7 6.6
22/07:00pm 20.3 19.7 15.7 75 2.7 S 13 19 7 10 1017.9 1017.9 6.6
22/06:30pm 20.5 19.5 15.7 74 2.9 S 15 24 8 13 1017.6 1017.6 6.6
22/06:00pm 20.7 20.2 15.9 74 2.9 SSW 13 20 7 11 1017.4 1017.4 6.6
22/05:30pm 21.0 20.5 16.0 73 3.0 SSW 13 22 7 12 1017.2 1017.2 6.6
22/05:00pm 21.6 20.3 15.9 70 3.4 S 17 24 9 13 1017.2 1017.2 6.6
22/04:30pm 22.5 20.7 15.6 65 4.1 SSW 19 32 10 17 1016.7 1016.7 6.6
22/04:00pm 22.9 21.4 16.2 66 4.1 SSW 19 30 10 16 1016.4 1016.4 6.6
22/03:30pm 22.9 20.8 16.2 66 4.1 S 22 30 12 16 1016.5 1016.5 6.6
22/03:00pm 24.0 22.6 17.0 65 4.3 S 20 30 11 16 1016.5 1016.5 6.6
22/02:30pm 23.5 21.7 17.0 67 4.0 S 22 30 12 16 1016.5 1016.5 6.6
22/02:00pm 22.7 21.0 17.2 71 3.4 S 22 33 12 18 1016.6 1016.6 6.6
22/01:30pm 22.7 21.1 18.3 76 2.8 S 24 35 13 19 1016.6 1016.6 6.6
22/01:00pm 20.6 19.5 17.8 84 1.7 S 20 30 11 16 1017.1 1017.1 6.6
22/12:39pm 19.6 18.8 18.4 93 0.7 SSE 20 28 11 15 1017.5 1017.5 6.6
22/12:30pm 19.5 19.8 18.7 95 0.5 SSE 15 20 8 11 1017.7 1017.7 6.4
22/12:00pm 19.3 17.2 18.1 93 0.7 ESE 26 35 14 19 1018.2 1018.2 3.6
22/11:56am 19.1 16.3 17.4 90 1.0 ESE 28 37 15 20 1018.3 1018.3 3.6
22/11:30am 20.3 19.6 17.3 83 1.8 S 17 30 9 16 1018.2 1018.2 2.4
22/11:11am 19.5 21.1 18.2 92 0.8 ESE 7 17 4 9 1018.7 1018.7 2.4
22/11:00am 19.1 18.2 17.8 92 0.8 ESE 19 28 10 15 1018.9 1018.9 2.2
22/10:52am 19.3 16.7 16.9 86 1.5 SE 26 39 14 21 1018.9 1018.9 1.8
22/10:30am 21.6 19.1 17.2 76 2.7 S 26 41 14 22 1018.9 1018.9 0.0
22/10:00am 20.6 19.4 17.6 83 1.8 SSW 20 30 11 16 1019.2 1019.2 0.0
22/09:30am 20.0 18.3 17.2 84 1.7 S 22 33 12 18 1019.3 1019.3 0.0
22/09:00am 20.2 19.1 17.8 86 1.5 S 20 32 11 17 1019.4 1019.4 1.4
22/08:30am 19.0 17.6 17.1 89 1.2 SSW 20 32 11 17 1019.3 1019.3 1.4
22/08:00am 18.9 17.7 17.6 92 0.8 S 20 35 11 19 1018.7 1018.7 1.4
22/07:30am 18.9 17.3 16.5 86 1.4 SSW 20 30 11 16 1018.5 1018.5 1.0
22/07:00am 18.6 17.2 16.6 88 1.2 SSW 19 28 10 15 1017.9 1017.9 1.0
22/06:39am 18.3 16.9 16.5 89 1.1 SSW 19 28 10 15 1017.7 1017.7 1.0
22/06:30am 18.5 17.0 16.3 87 1.3 SSW 19 30 10 16 1017.6 1017.6 1.0
22/06:24am 18.7 17.1 16.1 85 1.5 S 19 30 10 16 1017.6 1017.6 0.8
22/06:00am 19.6 18.3 15.7 78 2.3 SSW 17 26 9 14 1017.3 1017.3 0.2
22/05:30am 19.6 18.3 15.7 78 2.3 SSW 17 30 9 16 1017.0 1017.0 0.2
22/05:00am 19.6 17.9 15.7 78 2.3 SSW 19 26 10 14 1016.9 1016.9 0.2
22/04:30am 19.6 17.8 15.9 79 2.2 SSW 20 33 11 18 1016.9 1016.9 0.2
22/04:00am 19.5 17.2 15.8 79 2.2 SSW 22 33 12 18 1016.8 1016.8 0.2
22/03:30am 19.3 18.1 16.0 81 2.0 SSW 17 24 9 13 1016.5 1016.5 0.2
22/03:00am 19.3 17.7 16.0 81 2.0 SSW 19 26 10 14 1016.8 1016.8 0.2
22/02:30am 19.3 17.8 16.2 82 1.9 SSW 19 28 10 15 1017.1 1017.1 0.0
22/02:00am 19.1 18.4 16.3 84 1.7 SSW 15 24 8 13 1017.2 1017.2 0.0
22/01:30am 18.9 17.8 16.3 85 1.6 SSW 17 24 9 13 1017.6 1017.6 0.0
22/01:00am 19.6 18.4 16.1 80 2.1 SSW 17 28 9 15 1017.5 1017.5 0.0
22/12:30am 19.8 18.0 16.1 79 2.2 SSW 20 32 11 17 1017.9 1017.9 0.0
22/12:00am 20.1 18.3 16.1 78 2.4 SSW 20 32 11 17 1017.8 1017.8 0.0
 
Date/Time
EST
Temp
°C
App
Temp
°C
Dew
Point
°C
Rel
Hum
%
Delta-T
°C
Wind Press
QNH
hPa
Press
MSL
hPa
Rain since
9am
mm
Dir  Spd
km/h
Gust
km/h
Spd
kts
Gust
kts
21/11:30pm 20.1 18.9 16.1 78 2.4 SSW 17 26 9 14 1017.9 1017.9 0.0
21/11:00pm 20.2 19.8 16.2 78 2.4 SSW 13 22 7 12 1018.0 1018.0 0.0
21/10:30pm 20.2 18.9 15.8 76 2.6 SSW 17 24 9 13 1018.0 1018.0 0.0
21/10:00pm 20.2 18.9 15.8 76 2.6 SSW 17 24 9 13 1018.3 1018.3 0.0
21/09:30pm 20.1 19.9 15.7 76 2.6 SSW 11 19 6 10 1018.3 1018.3 0.0
21/09:00pm 20.4 18.8 16.0 76 2.6 S 19 24 10 13 1018.3 1018.3 0.0
21/08:30pm 20.4 20.2 15.8 75 2.7 SSW 11 17 6 9 1018.3 1018.3 0.0
21/08:00pm 20.3 19.3 15.5 74 2.8 SSW 15 20 8 11 1018.2 1018.2 0.0
21/07:30pm 20.3 19.6 15.5 74 2.8 SSW 13 22 7 12 1018.3 1018.3 0.0
21/07:00pm 20.6 19.2 14.5 68 3.6 SSW 15 22 8 12 1018.1 1018.1 0.0
21/06:30pm 20.9 19.3 13.8 64 4.1 SSW 15 22 8 12 1018.1 1018.1 0.0
21/06:00pm 21.1 18.4 13.0 60 4.6 S 19 32 10 17 1017.9 1017.9 0.0
21/05:30pm 22.1 19.4 15.5 66 3.9 S 24 35 13 19 1017.5 1017.5 0.0
21/05:00pm 22.8 21.7 16.4 67 3.9 SSW 17 20 9 11 1017.1 1017.1 0.0
21/04:30pm 23.7 22.7 16.7 65 4.3 S 17 26 9 14 1016.8 1016.8 0.0
21/04:00pm 23.0 22.5 17.0 69 3.7 S 15 22 8 12 1016.9 1016.9 0.0
21/03:30pm 24.3 22.4 16.8 63 4.6 S 22 32 12 17 1016.8 1016.8 0.0
21/03:00pm 24.3 21.7 16.8 63 4.6 SSE 26 35 14 19 1016.7 1016.7 0.0
21/02:30pm 25.4 22.5 16.0 56 5.7 S 26 37 14 20 1016.5 1016.5 0.0
21/02:00pm 25.2 21.4 15.8 56 5.7 SSE 30 41 16 22 1016.5 1016.5 0.0
21/01:33pm 25.5 22.1 15.8 55 5.9 SSE 28 46 15 25 1016.6 1016.6 0.0
21/01:30pm 25.8 22.7 15.5 53 6.2 SSE 26 39 14 21 1016.6 1016.6 0.0
21/01:00pm 24.1 21.4 16.6 63 4.6 SSE 26 39 14 21 1016.7 1016.7 0.0
21/12:30pm 25.6 23.2 16.5 57 5.6 SSE 24 35 13 19 1017.2 1017.2 0.0
21/12:00pm 25.9 23.9 17.3 59 5.4 S 24 35 13 19 1017.5 1017.5 0.0
21/11:30am 26.2 24.3 17.6 59 5.4 S 24 35 13 19 1017.8 1017.8 0.0
21/11:00am 24.6 22.1 17.1 63 4.6 S 26 37 14 20 1018.3 1018.3 0.0
21/10:30am 24.7 23.9 18.4 68 4.0 S 20 28 11 15 1018.6 1018.6 0.0
21/10:00am 24.2 23.2 17.9 68 3.9 S 20 32 11 17 1018.8 1018.8 0.0
21/09:30am 23.3 22.0 17.3 69 3.7 S 20 33 11 18 1019.0 1019.0 0.0
21/09:00am 22.6 21.4 17.1 71 3.4 SSW 19 26 10 14 1019.2 1019.2 2.4
21/08:30am 22.1 20.8 16.8 72 3.2 SSW 19 30 10 16 1019.1 1019.1 2.4
21/08:00am 21.3 20.1 17.1 77 2.6 SSW 19 26 10 14 1018.9 1018.9 2.4
21/07:30am 20.6 20.3 17.4 82 2.0 SSW 15 20 8 11 1018.8 1018.8 2.4
21/07:00am 19.4 19.5 17.5 89 1.2 SSW 13 17 7 9 1018.4 1018.4 2.4
21/06:30am 18.8 19.1 17.1 90 1.0 SSW 11 17 6 9 1018.3 1018.3 2.4
21/06:00am 18.3 18.9 16.8 91 0.9 S 9 13 5 7 1018.2 1018.2 2.4
21/05:30am 18.6 18.9 17.1 91 0.9 SSW 11 15 6 8 1017.9 1017.9 2.4
21/05:00am 18.7 18.6 16.9 89 1.1 S 13 20 7 11 1017.9 1017.9 2.4
21/04:30am 18.8 19.5 17.1 90 1.0 SSW 9 13 5 7 1017.7 1017.7 2.4
21/04:00am 18.8 20.3 17.5 92 0.8 S 6 9 3 5 1017.5 1017.5 2.4
21/03:30am 18.9 19.5 17.6 92 0.8 SSW 11 17 6 9 1017.4 1017.4 2.4
21/03:00am 19.0 18.9 17.8 93 0.7 S 15 20 8 11 1017.3 1017.3 2.4
21/02:30am 18.3 19.0 17.1 93 0.7 S 9 11 5 6 1017.6 1017.6 2.4
21/02:00am 18.6 19.8 17.3 92 0.8 SE 7 9 4 5 1017.5 1017.5 2.4
21/01:30am 19.6 22.0 17.9 90 1.0 SW 2 6 1 3 1017.7 1017.7 2.4
21/01:00am 19.3 19.6 17.8 91 0.9 SSW 13 20 7 11 1017.9 1017.9 2.4
21/12:30am 19.3 20.3 17.8 91 0.9 SSW 9 13 5 7 1018.2 1018.2 2.4
21/12:00am 19.4 20.9 18.1 92 0.8 SW 7 9 4 5 1018.3 1018.3 2.4
 
Date/Time
EST
Temp
°C
App
Temp
°C
Dew
Point
°C
Rel
Hum
%
Delta-T
°C
Wind Press
QNH
hPa
Press
MSL
hPa
Rain since
9am
mm
Dir  Spd
km/h
Gust
km/h
Spd
kts
Gust
kts
20/11:30pm 19.6 19.7 18.3 92 0.8 SSW 15 20 8 11 1018.5 1018.5 2.4
20/11:00pm 19.2 20.4 18.2 94 0.6 SSW 9 11 5 6 1018.7 1018.7 2.4
20/10:30pm 19.1 20.2 17.9 93 0.7 S 9 13 5 7 1018.6 1018.6 2.4
20/10:06pm 19.4 20.8 17.9 91 0.9 S 7 13 4 7 1018.6 1018.6 2.4
20/10:00pm 19.3 20.8 18.0 92 0.8 SSW 7 13 4 7 1018.6 1018.6 2.4
20/09:44pm 19.4 20.7 18.4 94 0.6 SSW 9 13 5 7 1018.2 1018.2 2.4
20/09:30pm 19.6 20.6 18.6 94 0.6 SSW 11 15 6 8 1017.8 1017.8 2.4
20/09:00pm 19.9 21.4 18.9 94 0.6 S 9 15 5 8 1018.3 1018.3 2.2
20/08:30pm 20.5 20.4 18.8 90 1.1 SSE 17 26 9 14 1018.7 1018.7 1.0
20/08:00pm 20.3 21.2 18.4 89 1.2 SSW 11 15 6 8 1018.3 1018.3 1.0
20/07:30pm 20.6 21.7 18.9 90 1.1 SSW 11 15 6 8 1018.0 1018.0 0.8
20/07:00pm 21.3 23.2 18.9 86 1.5 S 7 11 4 6 1017.8 1017.8 0.8
20/06:30pm 21.8 23.3 19.0 84 1.8 WSW 9 11 5 6 1017.8 1017.8 0.8
20/06:00pm 21.9 23.4 18.9 83 1.9 SW 9 13 5 7 1017.7 1017.7 0.8
20/05:30pm 22.1 23.6 18.9 82 2.0 SW 9 11 5 6 1017.3 1017.3 0.8
20/05:00pm 22.5 24.2 19.3 82 2.0 SW 9 13 5 7 1017.2 1017.2 0.8
20/04:30pm 22.9 24.2 18.4 76 2.8 SSW 9 9 5 5 1017.0 1017.0 0.8
20/04:00pm 23.3 24.1 18.2 73 3.2 S 11 17 6 9 1016.7 1016.7 0.8
20/03:30pm 23.7 23.2 17.9 70 3.6 SSE 17 22 9 12 1016.5 1016.5 0.8
20/03:00pm 24.2 24.0 18.4 70 3.7 SSE 17 20 9 11 1016.5 1016.5 0.8
20/02:30pm 25.3 24.0 18.2 64 4.5 SE 22 28 12 15 1016.2 1016.1 0.8
20/02:00pm 24.7 24.2 19.1 71 3.6 SE 20 26 11 14 1016.3 1016.3 0.8
20/01:30pm 25.0 24.9 19.6 72 3.5 ESE 19 24 10 13 1016.6 1016.6 0.8
20/01:00pm 24.1 24.1 19.0 73 3.2 ESE 17 24 9 13 1016.9 1016.9 0.8
20/12:30pm 24.2 23.7 18.6 71 3.5 SE 19 24 10 13 1017.3 1017.3 0.8
20/12:00pm 23.7 23.2 19.2 76 2.9 ESE 20 24 11 13 1017.8 1017.8 0.8
20/11:30am 23.8 23.8 18.9 74 3.1 SE 17 24 9 13 1018.5 1018.5 0.0
20/11:00am 25.2 25.1 17.9 64 4.6 ESE 15 22 8 12 1018.8 1018.8 0.0
20/10:30am 24.8 26.0 18.3 67 4.1 ESE 9 13 5 7 1019.2 1019.2 0.0
20/10:00am 25.4 25.4 18.1 64 4.6 SSW 15 20 8 11 1019.5 1019.5 0.0

Other Formats:

Comma delimited format used in spreadsheet applications
http://www.bom.gov.au/fwo/IDN60801/IDN60801.94592.axf

JavaScript Object Notation format (JSON) in row-major order
http://www.bom.gov.au/fwo/IDN60801/IDN60801.94592.json